sensor_id;sensor_type;location;lat;lon;timestamp;P1;durP1;ratioP1;P2;durP2;ratioP2
44824;SDS011;30542;47.928;2.138;2023-11-21T00:03:20;4.10;;;0.90;;
44824;SDS011;30542;47.928;2.138;2023-11-21T00:08:20;3.37;;;0.70;;
44824;SDS011;30542;47.928;2.138;2023-11-21T00:13:20;3.53;;;0.60;;
44824;SDS011;30542;47.928;2.138;2023-11-21T00:18:20;1.73;;;0.43;;
44824;SDS011;30542;47.928;2.138;2023-11-21T00:23:21;2.37;;;0.40;;
44824;SDS011;30542;47.928;2.138;2023-11-21T00:28:21;2.80;;;1.00;;
44824;SDS011;30542;47.928;2.138;2023-11-21T00:33:22;1.92;;;0.55;;
44824;SDS011;30542;47.928;2.138;2023-11-21T00:38:22;2.67;;;0.65;;
44824;SDS011;30542;47.928;2.138;2023-11-21T00:43:23;1.33;;;0.53;;
44824;SDS011;30542;47.928;2.138;2023-11-21T00:48:24;2.20;;;0.63;;
44824;SDS011;30542;47.928;2.138;2023-11-21T00:53:24;1.45;;;0.55;;
44824;SDS011;30542;47.928;2.138;2023-11-21T00:58:25;1.65;;;0.73;;
44824;SDS011;30542;47.928;2.138;2023-11-21T01:03:25;1.67;;;0.40;;
44824;SDS011;30542;47.928;2.138;2023-11-21T01:08:26;2.90;;;0.57;;
44824;SDS011;30542;47.928;2.138;2023-11-21T01:13:26;1.77;;;0.45;;
44824;SDS011;30542;47.928;2.138;2023-11-21T01:18:27;2.15;;;0.70;;
44824;SDS011;30542;47.928;2.138;2023-11-21T01:23:29;2.72;;;0.70;;
44824;SDS011;30542;47.928;2.138;2023-11-21T01:28:29;1.00;;;0.50;;
44824;SDS011;30542;47.928;2.138;2023-11-21T01:33:29;1.80;;;0.50;;
44824;SDS011;30542;47.928;2.138;2023-11-21T01:38:30;2.15;;;0.50;;
44824;SDS011;30542;47.928;2.138;2023-11-21T01:43:30;2.03;;;0.70;;
44824;SDS011;30542;47.928;2.138;2023-11-21T01:48:32;2.28;;;0.30;;
44824;SDS011;30542;47.928;2.138;2023-11-21T01:53:33;0.93;;;0.50;;
44824;SDS011;30542;47.928;2.138;2023-11-21T01:58:36;1.88;;;0.50;;
44824;SDS011;30542;47.928;2.138;2023-11-21T02:03:37;1.87;;;0.57;;
44824;SDS011;30542;47.928;2.138;2023-11-21T02:08:37;1.63;;;0.70;;
44824;SDS011;30542;47.928;2.138;2023-11-21T02:13:38;1.33;;;0.40;;
44824;SDS011;30542;47.928;2.138;2023-11-21T02:18:39;2.33;;;0.90;;
44824;SDS011;30542;47.928;2.138;2023-11-21T02:23:39;1.30;;;0.50;;
44824;SDS011;30542;47.928;2.138;2023-11-21T02:28:44;2.15;;;0.30;;
44824;SDS011;30542;47.928;2.138;2023-11-21T02:33:44;1.17;;;0.30;;
44824;SDS011;30542;47.928;2.138;2023-11-21T02:38:44;2.20;;;0.30;;
44824;SDS011;30542;47.928;2.138;2023-11-21T02:43:45;1.65;;;0.47;;
44824;SDS011;30542;47.928;2.138;2023-11-21T02:48:45;1.98;;;0.50;;
44824;SDS011;30542;47.928;2.138;2023-11-21T02:53:48;1.50;;;0.30;;
44824;SDS011;30542;47.928;2.138;2023-11-21T02:58:50;1.15;;;0.45;;
44824;SDS011;30542;47.928;2.138;2023-11-21T03:03:53;1.52;;;0.35;;
44824;SDS011;30542;47.928;2.138;2023-11-21T03:08:55;0.95;;;0.50;;
44824;SDS011;30542;47.928;2.138;2023-11-21T03:13:55;0.73;;;0.30;;
44824;SDS011;30542;47.928;2.138;2023-11-21T03:18:55;0.60;;;0.28;;
44824;SDS011;30542;47.928;2.138;2023-11-21T03:23:56;1.48;;;0.28;;
44824;SDS011;30542;47.928;2.138;2023-11-21T03:28:56;1.42;;;0.40;;
44824;SDS011;30542;47.928;2.138;2023-11-21T03:33:56;0.85;;;0.38;;
44824;SDS011;30542;47.928;2.138;2023-11-21T03:38:56;1.27;;;0.40;;
44824;SDS011;30542;47.928;2.138;2023-11-21T03:43:57;0.68;;;0.30;;
44824;SDS011;30542;47.928;2.138;2023-11-21T03:48:57;1.35;;;0.30;;
44824;SDS011;30542;47.928;2.138;2023-11-21T03:53:57;1.83;;;0.40;;
44824;SDS011;30542;47.928;2.138;2023-11-21T03:58:58;0.65;;;0.30;;
44824;SDS011;30542;47.928;2.138;2023-11-21T04:03:58;1.20;;;0.47;;
44824;SDS011;30542;47.928;2.138;2023-11-21T04:08:59;0.82;;;0.32;;
44824;SDS011;30542;47.928;2.138;2023-11-21T04:13:59;0.77;;;0.20;;
44824;SDS011;30542;47.928;2.138;2023-11-21T04:18:59;1.38;;;0.20;;
44824;SDS011;30542;47.928;2.138;2023-11-21T04:24:00;1.15;;;0.30;;
44824;SDS011;30542;47.928;2.138;2023-11-21T04:29:00;1.38;;;0.20;;
44824;SDS011;30542;47.928;2.138;2023-11-21T04:34:01;1.27;;;0.30;;
44824;SDS011;30542;47.928;2.138;2023-11-21T04:39:01;0.60;;;0.40;;
44824;SDS011;30542;47.928;2.138;2023-11-21T04:44:01;0.90;;;0.23;;
44824;SDS011;30542;47.928;2.138;2023-11-21T04:49:02;0.60;;;0.20;;
44824;SDS011;30542;47.928;2.138;2023-11-21T04:54:02;1.10;;;0.30;;
44824;SDS011;30542;47.928;2.138;2023-11-21T04:59:02;0.80;;;0.40;;
44824;SDS011;30542;47.928;2.138;2023-11-21T05:04:04;0.80;;;0.40;;
44824;SDS011;30542;47.928;2.138;2023-11-21T05:09:05;1.02;;;0.30;;
44824;SDS011;30542;47.928;2.138;2023-11-21T05:14:06;2.80;;;0.50;;
44824;SDS011;30542;47.928;2.138;2023-11-21T05:19:06;0.73;;;0.30;;
44824;SDS011;30542;47.928;2.138;2023-11-21T05:24:07;1.77;;;0.45;;
44824;SDS011;30542;47.928;2.138;2023-11-21T05:29:07;2.55;;;0.50;;
44824;SDS011;30542;47.928;2.138;2023-11-21T05:34:08;2.97;;;1.13;;
44824;SDS011;30542;47.928;2.138;2023-11-21T05:39:09;4.87;;;0.90;;
44824;SDS011;30542;47.928;2.138;2023-11-21T05:44:11;5.70;;;0.70;;
44824;SDS011;30542;47.928;2.138;2023-11-21T05:49:12;2.33;;;0.35;;
44824;SDS011;30542;47.928;2.138;2023-11-21T05:54:12;2.75;;;0.40;;
44824;SDS011;30542;47.928;2.138;2023-11-21T05:59:12;7.50;;;1.27;;
44824;SDS011;30542;47.928;2.138;2023-11-21T06:04:13;14.75;;;2.92;;
44824;SDS011;30542;47.928;2.138;2023-11-21T06:09:13;14.98;;;3.15;;
44824;SDS011;30542;47.928;2.138;2023-11-21T06:14:13;17.80;;;4.40;;
44824;SDS011;30542;47.928;2.138;2023-11-21T06:19:15;11.35;;;2.97;;
44824;SDS011;30542;47.928;2.138;2023-11-21T06:24:15;9.27;;;2.47;;
44824;SDS011;30542;47.928;2.138;2023-11-21T06:29:15;7.45;;;2.05;;
44824;SDS011;30542;47.928;2.138;2023-11-21T06:34:16;5.87;;;2.10;;
44824;SDS011;30542;47.928;2.138;2023-11-21T06:39:16;9.73;;;2.10;;
44824;SDS011;30542;47.928;2.138;2023-11-21T06:44:17;7.68;;;1.30;;
44824;SDS011;30542;47.928;2.138;2023-11-21T06:49:17;9.00;;;1.80;;
44824;SDS011;30542;47.928;2.138;2023-11-21T06:54:18;6.32;;;1.73;;
44824;SDS011;30542;47.928;2.138;2023-11-21T06:59:18;4.60;;;1.23;;
44824;SDS011;30542;47.928;2.138;2023-11-21T07:04:19;5.53;;;1.23;;
44824;SDS011;30542;47.928;2.138;2023-11-21T07:09:19;6.57;;;1.38;;
44824;SDS011;30542;47.928;2.138;2023-11-21T07:14:22;5.93;;;1.50;;
44824;SDS011;30542;47.928;2.138;2023-11-21T07:19:22;6.95;;;1.55;;
44824;SDS011;30542;47.928;2.138;2023-11-21T07:24:23;8.48;;;1.63;;
44824;SDS011;30542;47.928;2.138;2023-11-21T07:29:24;7.50;;;1.90;;
44824;SDS011;30542;47.928;2.138;2023-11-21T07:34:29;5.65;;;2.03;;
44824;SDS011;30542;47.928;2.138;2023-11-21T07:39:30;5.83;;;1.60;;
44824;SDS011;30542;47.928;2.138;2023-11-21T07:44:30;4.87;;;1.57;;
44824;SDS011;30542;47.928;2.138;2023-11-21T07:49:30;4.05;;;1.38;;
44824;SDS011;30542;47.928;2.138;2023-11-21T07:54:31;5.00;;;1.42;;
44824;SDS011;30542;47.928;2.138;2023-11-21T07:59:34;6.97;;;2.03;;
44824;SDS011;30542;47.928;2.138;2023-11-21T08:04:34;4.38;;;1.67;;
44824;SDS011;30542;47.928;2.138;2023-11-21T08:09:35;3.70;;;1.27;;
44824;SDS011;30542;47.928;2.138;2023-11-21T08:14:35;3.78;;;0.93;;
44824;SDS011;30542;47.928;2.138;2023-11-21T08:19:38;6.05;;;1.90;;
44824;SDS011;30542;47.928;2.138;2023-11-21T08:24:39;4.10;;;1.33;;
44824;SDS011;30542;47.928;2.138;2023-11-21T08:29:39;3.77;;;1.63;;
44824;SDS011;30542;47.928;2.138;2023-11-21T08:34:39;5.00;;;1.33;;
44824;SDS011;30542;47.928;2.138;2023-11-21T08:39:47;4.55;;;1.08;;
44824;SDS011;30542;47.928;2.138;2023-11-21T08:44:48;3.55;;;1.00;;
44824;SDS011;30542;47.928;2.138;2023-11-21T08:49:48;3.58;;;0.95;;
44824;SDS011;30542;47.928;2.138;2023-11-21T08:54:49;3.78;;;1.00;;
44824;SDS011;30542;47.928;2.138;2023-11-21T08:59:55;3.72;;;1.20;;
44824;SDS011;30542;47.928;2.138;2023-11-21T09:04:56;3.65;;;1.00;;
44824;SDS011;30542;47.928;2.138;2023-11-21T09:09:57;2.63;;;1.17;;
44824;SDS011;30542;47.928;2.138;2023-11-21T09:14:57;2.72;;;0.95;;
44824;SDS011;30542;47.928;2.138;2023-11-21T09:19:58;2.60;;;1.13;;
44824;SDS011;30542;47.928;2.138;2023-11-21T09:24:58;3.33;;;0.98;;
44824;SDS011;30542;47.928;2.138;2023-11-21T09:29:58;2.70;;;1.15;;
44824;SDS011;30542;47.928;2.138;2023-11-21T09:34:59;2.70;;;1.00;;
44824;SDS011;30542;47.928;2.138;2023-11-21T09:40:02;1.45;;;0.60;;
44824;SDS011;30542;47.928;2.138;2023-11-21T09:45:03;3.13;;;1.08;;
44824;SDS011;30542;47.928;2.138;2023-11-21T09:50:10;1.42;;;0.90;;
44824;SDS011;30542;47.928;2.138;2023-11-21T09:55:11;3.10;;;1.17;;
44824;SDS011;30542;47.928;2.138;2023-11-21T10:00:15;4.07;;;0.80;;
44824;SDS011;30542;47.928;2.138;2023-11-21T10:05:18;2.35;;;0.80;;
44824;SDS011;30542;47.928;2.138;2023-11-21T10:10:22;3.47;;;1.15;;
44824;SDS011;30542;47.928;2.138;2023-11-21T10:15:25;2.33;;;0.60;;
44824;SDS011;30542;47.928;2.138;2023-11-21T10:20:25;1.92;;;0.80;;
44824;SDS011;30542;47.928;2.138;2023-11-21T10:25:26;2.20;;;0.82;;
44824;SDS011;30542;47.928;2.138;2023-11-21T10:30:36;1.30;;;0.57;;
44824;SDS011;30542;47.928;2.138;2023-11-21T10:35:47;1.35;;;0.50;;
44824;SDS011;30542;47.928;2.138;2023-11-21T10:40:51;1.42;;;0.70;;
44824;SDS011;30542;47.928;2.138;2023-11-21T10:45:52;2.47;;;0.65;;
44824;SDS011;30542;47.928;2.138;2023-11-21T10:50:57;2.28;;;0.90;;
44824;SDS011;30542;47.928;2.138;2023-11-21T10:56:02;1.02;;;0.40;;
44824;SDS011;30542;47.928;2.138;2023-11-21T11:01:17;1.65;;;0.60;;
44824;SDS011;30542;47.928;2.138;2023-11-21T11:06:19;1.35;;;0.50;;
44824;SDS011;30542;47.928;2.138;2023-11-21T11:11:19;1.15;;;0.43;;
44824;SDS011;30542;47.928;2.138;2023-11-21T11:16:19;1.73;;;0.63;;
44824;SDS011;30542;47.928;2.138;2023-11-21T11:26:46;0.90;;;0.55;;
44824;SDS011;30542;47.928;2.138;2023-11-21T11:31:58;1.08;;;0.50;;
44824;SDS011;30542;47.928;2.138;2023-11-21T11:37:05;0.65;;;0.30;;
44824;SDS011;30542;47.928;2.138;2023-11-21T11:42:13;1.20;;;0.43;;
44824;SDS011;30542;47.928;2.138;2023-11-21T11:47:15;1.27;;;0.30;;
44824;SDS011;30542;47.928;2.138;2023-11-21T11:52:35;1.20;;;0.40;;
44824;SDS011;30542;47.928;2.138;2023-11-21T11:57:46;1.05;;;0.40;;
44824;SDS011;30542;47.928;2.138;2023-11-21T12:02:50;0.95;;;0.40;;
44824;SDS011;30542;47.928;2.138;2023-11-21T12:07:54;0.70;;;0.40;;
44824;SDS011;30542;47.928;2.138;2023-11-21T12:12:57;1.00;;;0.40;;
44824;SDS011;30542;47.928;2.138;2023-11-21T12:18:00;0.57;;;0.25;;
44824;SDS011;30542;47.928;2.138;2023-11-21T12:23:01;1.33;;;0.30;;
44824;SDS011;30542;47.928;2.138;2023-11-21T12:28:03;1.38;;;0.47;;
44824;SDS011;30542;47.928;2.138;2023-11-21T12:33:03;1.23;;;0.30;;
44824;SDS011;30542;47.928;2.138;2023-11-21T12:38:04;0.65;;;0.30;;
44824;SDS011;30542;47.928;2.138;2023-11-21T12:43:05;0.52;;;0.40;;
44824;SDS011;30542;47.928;2.138;2023-11-21T12:48:10;0.55;;;0.30;;
44824;SDS011;30542;47.928;2.138;2023-11-21T12:53:12;1.35;;;0.30;;
44824;SDS011;30542;47.928;2.138;2023-11-21T12:58:12;0.75;;;0.35;;
44824;SDS011;30542;47.928;2.138;2023-11-21T13:03:14;0.82;;;0.20;;
44824;SDS011;30542;47.928;2.138;2023-11-21T13:08:25;0.40;;;0.40;;
44824;SDS011;30542;47.928;2.138;2023-11-21T13:13:29;0.40;;;0.20;;
44824;SDS011;30542;47.928;2.138;2023-11-21T13:18:30;0.35;;;0.20;;
44824;SDS011;30542;47.928;2.138;2023-11-21T13:23:36;0.30;;;0.20;;
44824;SDS011;30542;47.928;2.138;2023-11-21T13:28:37;0.60;;;0.30;;
44824;SDS011;30542;47.928;2.138;2023-11-21T13:33:38;0.50;;;0.20;;
44824;SDS011;30542;47.928;2.138;2023-11-21T13:38:41;0.70;;;0.20;;
44824;SDS011;30542;47.928;2.138;2023-11-21T13:43:46;0.35;;;0.20;;
44824;SDS011;30542;47.928;2.138;2023-11-21T13:48:50;0.85;;;0.32;;
44824;SDS011;30542;47.928;2.138;2023-11-21T13:53:55;0.22;;;0.20;;
44824;SDS011;30542;47.928;2.138;2023-11-21T13:58:56;0.30;;;0.13;;
44824;SDS011;30542;47.928;2.138;2023-11-21T14:03:57;0.55;;;0.20;;
44824;SDS011;30542;47.928;2.138;2023-11-21T14:09:08;0.80;;;0.20;;
44824;SDS011;30542;47.928;2.138;2023-11-21T14:14:08;0.52;;;0.20;;
44824;SDS011;30542;47.928;2.138;2023-11-21T14:19:09;0.40;;;0.20;;
44824;SDS011;30542;47.928;2.138;2023-11-21T14:24:18;0.70;;;0.20;;
44824;SDS011;30542;47.928;2.138;2023-11-21T14:29:19;0.20;;;0.10;;
44824;SDS011;30542;47.928;2.138;2023-11-21T14:34:19;0.35;;;0.20;;
44824;SDS011;30542;47.928;2.138;2023-11-21T14:39:21;0.73;;;0.20;;
44824;SDS011;30542;47.928;2.138;2023-11-21T14:44:27;0.85;;;0.20;;
44824;SDS011;30542;47.928;2.138;2023-11-21T14:49:32;0.30;;;0.20;;
44824;SDS011;30542;47.928;2.138;2023-11-21T14:54:45;0.30;;;0.10;;
44824;SDS011;30542;47.928;2.138;2023-11-21T14:59:46;0.47;;;0.20;;
44824;SDS011;30542;47.928;2.138;2023-11-21T15:04:52;0.38;;;0.10;;
44824;SDS011;30542;47.928;2.138;2023-11-21T15:09:56;0.25;;;0.20;;
44824;SDS011;30542;47.928;2.138;2023-11-21T15:14:56;0.30;;;0.20;;
44824;SDS011;30542;47.928;2.138;2023-11-21T15:19:57;0.20;;;0.20;;
44824;SDS011;30542;47.928;2.138;2023-11-21T15:24:57;0.20;;;0.10;;
44824;SDS011;30542;47.928;2.138;2023-11-21T15:29:58;0.30;;;0.15;;
44824;SDS011;30542;47.928;2.138;2023-11-21T15:35:01;0.47;;;0.10;;
44824;SDS011;30542;47.928;2.138;2023-11-21T15:40:02;0.20;;;0.10;;
44824;SDS011;30542;47.928;2.138;2023-11-21T15:45:05;0.32;;;0.20;;
44824;SDS011;30542;47.928;2.138;2023-11-21T15:50:08;0.20;;;0.10;;
44824;SDS011;30542;47.928;2.138;2023-11-21T15:55:10;0.20;;;0.10;;
44824;SDS011;30542;47.928;2.138;2023-11-21T16:00:11;0.45;;;0.20;;
44824;SDS011;30542;47.928;2.138;2023-11-21T16:05:16;0.30;;;0.10;;
44824;SDS011;30542;47.928;2.138;2023-11-21T16:10:17;0.20;;;0.13;;
44824;SDS011;30542;47.928;2.138;2023-11-21T16:15:19;0.88;;;0.10;;
44824;SDS011;30542;47.928;2.138;2023-11-21T16:20:20;0.20;;;0.10;;
44824;SDS011;30542;47.928;2.138;2023-11-21T16:25:20;0.10;;;0.10;;
44824;SDS011;30542;47.928;2.138;2023-11-21T16:30:20;0.10;;;0.10;;
44824;SDS011;30542;47.928;2.138;2023-11-21T16:35:23;0.85;;;0.20;;
44824;SDS011;30542;47.928;2.138;2023-11-21T16:40:24;0.20;;;0.10;;
44824;SDS011;30542;47.928;2.138;2023-11-21T16:45:27;0.70;;;0.10;;
44824;SDS011;30542;47.928;2.138;2023-11-21T16:50:27;1.05;;;0.10;;
44824;SDS011;30542;47.928;2.138;2023-11-21T16:55:29;1.50;;;0.10;;
44824;SDS011;30542;47.928;2.138;2023-11-21T17:00:29;6.67;;;0.33;;
44824;SDS011;30542;47.928;2.138;2023-11-21T17:05:29;3.70;;;0.27;;
44824;SDS011;30542;47.928;2.138;2023-11-21T17:10:32;2.00;;;0.30;;
44824;SDS011;30542;47.928;2.138;2023-11-21T17:15:33;0.88;;;0.28;;
44824;SDS011;30542;47.928;2.138;2023-11-21T17:20:33;1.45;;;0.20;;
44824;SDS011;30542;47.928;2.138;2023-11-21T17:25:34;2.10;;;0.20;;
44824;SDS011;30542;47.928;2.138;2023-11-21T17:30:36;0.77;;;0.20;;
44824;SDS011;30542;47.928;2.138;2023-11-21T17:35:39;0.20;;;0.10;;
44824;SDS011;30542;47.928;2.138;2023-11-21T17:40:39;0.68;;;0.17;;
44824;SDS011;30542;47.928;2.138;2023-11-21T17:45:40;0.75;;;0.20;;
44824;SDS011;30542;47.928;2.138;2023-11-21T17:50:40;0.43;;;0.20;;
44824;SDS011;30542;47.928;2.138;2023-11-21T17:55:41;1.00;;;0.20;;
44824;SDS011;30542;47.928;2.138;2023-11-21T18:00:41;0.85;;;0.17;;
44824;SDS011;30542;47.928;2.138;2023-11-21T18:05:42;2.40;;;0.20;;
44824;SDS011;30542;47.928;2.138;2023-11-21T18:10:42;0.15;;;0.10;;
44824;SDS011;30542;47.928;2.138;2023-11-21T18:15:42;0.38;;;0.20;;
44824;SDS011;30542;47.928;2.138;2023-11-21T18:20:42;0.70;;;0.17;;
44824;SDS011;30542;47.928;2.138;2023-11-21T18:25:44;1.00;;;0.20;;
44824;SDS011;30542;47.928;2.138;2023-11-21T18:30:45;1.17;;;0.10;;
44824;SDS011;30542;47.928;2.138;2023-11-21T18:35:45;0.82;;;0.20;;
44824;SDS011;30542;47.928;2.138;2023-11-21T18:40:45;3.15;;;0.25;;
44824;SDS011;30542;47.928;2.138;2023-11-21T18:45:46;0.40;;;0.10;;
44824;SDS011;30542;47.928;2.138;2023-11-21T18:50:46;0.93;;;0.10;;
44824;SDS011;30542;47.928;2.138;2023-11-21T18:55:50;1.13;;;0.20;;
44824;SDS011;30542;47.928;2.138;2023-11-21T19:00:50;2.05;;;0.30;;
44824;SDS011;30542;47.928;2.138;2023-11-21T19:05:51;0.90;;;0.15;;
44824;SDS011;30542;47.928;2.138;2023-11-21T19:10:51;1.38;;;0.30;;
44824;SDS011;30542;47.928;2.138;2023-11-21T19:15:52;1.07;;;0.13;;
44824;SDS011;30542;47.928;2.138;2023-11-21T19:20:52;3.13;;;0.20;;
44824;SDS011;30542;47.928;2.138;2023-11-21T19:25:52;1.95;;;0.22;;
44824;SDS011;30542;47.928;2.138;2023-11-21T19:30:52;2.05;;;0.20;;
44824;SDS011;30542;47.928;2.138;2023-11-21T19:35:54;1.38;;;0.47;;
44824;SDS011;30542;47.928;2.138;2023-11-21T19:40:54;1.65;;;0.35;;
44824;SDS011;30542;47.928;2.138;2023-11-21T19:45:55;0.60;;;0.20;;
44824;SDS011;30542;47.928;2.138;2023-11-21T19:50:56;0.77;;;0.20;;
44824;SDS011;30542;47.928;2.138;2023-11-21T19:55:56;2.63;;;0.50;;
44824;SDS011;30542;47.928;2.138;2023-11-21T20:00:56;0.40;;;0.20;;
44824;SDS011;30542;47.928;2.138;2023-11-21T20:05:57;1.05;;;0.45;;
44824;SDS011;30542;47.928;2.138;2023-11-21T20:10:58;1.33;;;0.30;;
44824;SDS011;30542;47.928;2.138;2023-11-21T20:16:00;1.73;;;0.32;;
44824;SDS011;30542;47.928;2.138;2023-11-21T20:21:00;1.47;;;0.37;;
44824;SDS011;30542;47.928;2.138;2023-11-21T20:26:01;1.33;;;0.20;;
44824;SDS011;30542;47.928;2.138;2023-11-21T20:31:02;1.88;;;0.40;;
44824;SDS011;30542;47.928;2.138;2023-11-21T20:36:02;0.68;;;0.40;;
44824;SDS011;30542;47.928;2.138;2023-11-21T20:41:04;0.68;;;0.20;;
44824;SDS011;30542;47.928;2.138;2023-11-21T20:46:06;1.23;;;0.20;;
44824;SDS011;30542;47.928;2.138;2023-11-21T20:51:06;1.33;;;0.38;;
44824;SDS011;30542;47.928;2.138;2023-11-21T20:56:07;0.43;;;0.20;;
44824;SDS011;30542;47.928;2.138;2023-11-21T21:01:07;0.30;;;0.10;;
44824;SDS011;30542;47.928;2.138;2023-11-21T21:06:07;0.73;;;0.20;;
44824;SDS011;30542;47.928;2.138;2023-11-21T21:11:08;0.40;;;0.20;;
44824;SDS011;30542;47.928;2.138;2023-11-21T21:16:09;0.40;;;0.20;;
44824;SDS011;30542;47.928;2.138;2023-11-21T21:21:09;0.30;;;0.20;;
44824;SDS011;30542;47.928;2.138;2023-11-21T21:26:10;1.05;;;0.35;;
44824;SDS011;30542;47.928;2.138;2023-11-21T21:31:11;0.40;;;0.20;;
44824;SDS011;30542;47.928;2.138;2023-11-21T21:36:12;1.13;;;0.20;;
44824;SDS011;30542;47.928;2.138;2023-11-21T21:41:15;1.15;;;0.20;;
44824;SDS011;30542;47.928;2.138;2023-11-21T21:46:18;0.75;;;0.30;;
44824;SDS011;30542;47.928;2.138;2023-11-21T21:51:19;0.98;;;0.32;;
44824;SDS011;30542;47.928;2.138;2023-11-21T21:56:19;1.05;;;0.30;;
44824;SDS011;30542;47.928;2.138;2023-11-21T22:01:20;1.20;;;0.30;;
44824;SDS011;30542;47.928;2.138;2023-11-21T22:06:21;0.85;;;0.25;;
44824;SDS011;30542;47.928;2.138;2023-11-21T22:11:21;0.40;;;0.30;;
44824;SDS011;30542;47.928;2.138;2023-11-21T22:16:21;1.03;;;0.20;;
44824;SDS011;30542;47.928;2.138;2023-11-21T22:21:24;0.63;;;0.30;;
44824;SDS011;30542;47.928;2.138;2023-11-21T22:26:26;0.70;;;0.40;;
44824;SDS011;30542;47.928;2.138;2023-11-21T22:31:26;1.65;;;0.20;;
44824;SDS011;30542;47.928;2.138;2023-11-21T22:36:27;0.83;;;0.20;;
44824;SDS011;30542;47.928;2.138;2023-11-21T22:41:28;1.30;;;0.30;;
44824;SDS011;30542;47.928;2.138;2023-11-21T22:46:28;1.60;;;0.53;;
44824;SDS011;30542;47.928;2.138;2023-11-21T22:51:28;1.58;;;0.40;;
44824;SDS011;30542;47.928;2.138;2023-11-21T22:56:29;0.52;;;0.20;;
44824;SDS011;30542;47.928;2.138;2023-11-21T23:01:29;0.93;;;0.30;;
44824;SDS011;30542;47.928;2.138;2023-11-21T23:06:29;1.03;;;0.20;;
44824;SDS011;30542;47.928;2.138;2023-11-21T23:11:29;0.43;;;0.30;;
44824;SDS011;30542;47.928;2.138;2023-11-21T23:16:30;1.65;;;0.50;;
44824;SDS011;30542;47.928;2.138;2023-11-21T23:21:30;0.52;;;0.20;;
44824;SDS011;30542;47.928;2.138;2023-11-21T23:26:32;1.42;;;0.28;;
44824;SDS011;30542;47.928;2.138;2023-11-21T23:31:32;0.50;;;0.30;;
44824;SDS011;30542;47.928;2.138;2023-11-21T23:36:32;0.50;;;0.30;;
44824;SDS011;30542;47.928;2.138;2023-11-21T23:41:33;1.13;;;0.30;;
44824;SDS011;30542;47.928;2.138;2023-11-21T23:46:36;1.20;;;0.30;;
44824;SDS011;30542;47.928;2.138;2023-11-21T23:51:36;1.93;;;0.30;;
44824;SDS011;30542;47.928;2.138;2023-11-21T23:56:37;1.40;;;0.40;;
